Terminal Aerodrome Forecast
Issued by NWS Melbourne, FL

Home | Current Version | Previous Version | Text Only | Print | Product List | Glossary On
Versions: 1 2 3 4 5 6 7 8 9 10 11 12 13 14
000
FTUS42 KMLB 200536
TAFMLB
TAF
KMLB 200536Z 2006/2106 14004KT P6SM FEW020 BKN250
     FM201400 09006KT P6SM VCSH SCT020 BKN200
     FM201800 11010KT P6SM VCTS SCT030CB SCT150 BKN200
     FM202200 10007KT P6SM VCSH SCT030 SCT120 OVC200=

USA.gov is the U.S. government's official web portal to all federal, state and local government web resources and services.